sensor_id;sensor_type;location;lat;lon;timestamp;P1;durP1;ratioP1;P2;durP2;ratioP2
22955;SDS011;40888;48.148;11.526;2022-09-25T00:01:25;36.10;;;26.50;;
22955;SDS011;40888;48.148;11.526;2022-09-25T00:03:51;40.93;;;30.33;;
22955;SDS011;40888;48.148;11.526;2022-09-25T00:06:18;21.40;;;18.13;;
22955;SDS011;40888;48.148;11.526;2022-09-25T00:08:44;15.37;;;13.87;;
22955;SDS011;40888;48.148;11.526;2022-09-25T00:11:15;17.70;;;15.83;;
22955;SDS011;40888;48.148;11.526;2022-09-25T00:13:42;14.33;;;12.83;;
22955;SDS011;40888;48.148;11.526;2022-09-25T00:16:09;15.67;;;13.80;;
22955;SDS011;40888;48.148;11.526;2022-09-25T00:18:35;28.77;;;22.90;;
22955;SDS011;40888;48.148;11.526;2022-09-25T00:21:20;31.53;;;24.13;;
22955;SDS011;40888;48.148;11.526;2022-09-25T00:23:46;24.87;;;19.00;;
22955;SDS011;40888;48.148;11.526;2022-09-25T00:26:13;15.97;;;14.27;;
22955;SDS011;40888;48.148;11.526;2022-09-25T00:28:40;15.93;;;13.73;;
22955;SDS011;40888;48.148;11.526;2022-09-25T00:31:07;16.63;;;14.83;;
22955;SDS011;40888;48.148;11.526;2022-09-25T00:33:34;20.10;;;18.10;;
22955;SDS011;40888;48.148;11.526;2022-09-25T00:36:01;17.57;;;15.53;;
22955;SDS011;40888;48.148;11.526;2022-09-25T00:38:29;14.10;;;12.63;;
22955;SDS011;40888;48.148;11.526;2022-09-25T00:40:56;14.33;;;12.93;;
22955;SDS011;40888;48.148;11.526;2022-09-25T00:46:01;16.90;;;15.10;;
22955;SDS011;40888;48.148;11.526;2022-09-25T00:48:29;14.23;;;12.93;;
22955;SDS011;40888;48.148;11.526;2022-09-25T00:50:55;18.47;;;15.90;;
22955;SDS011;40888;48.148;11.526;2022-09-25T00:53:24;19.97;;;17.87;;
22955;SDS011;40888;48.148;11.526;2022-09-25T00:55:52;21.17;;;18.97;;
22955;SDS011;40888;48.148;11.526;2022-09-25T00:58:20;18.27;;;15.00;;
22955;SDS011;40888;48.148;11.526;2022-09-25T01:00:46;15.03;;;13.43;;
22955;SDS011;40888;48.148;11.526;2022-09-25T01:03:13;14.43;;;13.03;;
22955;SDS011;40888;48.148;11.526;2022-09-25T01:05:40;12.10;;;10.90;;
22955;SDS011;40888;48.148;11.526;2022-09-25T01:08:07;11.87;;;10.67;;
22955;SDS011;40888;48.148;11.526;2022-09-25T01:10:35;10.20;;;9.20;;
22955;SDS011;40888;48.148;11.526;2022-09-25T01:13:01;9.10;;;8.30;;
22955;SDS011;40888;48.148;11.526;2022-09-25T01:15:35;9.00;;;8.10;;
22955;SDS011;40888;48.148;11.526;2022-09-25T01:28:50;9.00;;;8.20;;
22955;SDS011;40888;48.148;11.526;2022-09-25T01:34:12;8.30;;;7.60;;
22955;SDS011;40888;48.148;11.526;2022-09-25T01:36:41;8.80;;;8.00;;
22955;SDS011;40888;48.148;11.526;2022-09-25T01:39:19;8.67;;;7.93;;
22955;SDS011;40888;48.148;11.526;2022-09-25T01:44:45;7.87;;;7.17;;
22955;SDS011;40888;48.148;11.526;2022-09-25T01:47:16;7.73;;;7.13;;
22955;SDS011;40888;48.148;11.526;2022-09-25T01:49:47;7.37;;;6.73;;
22955;SDS011;40888;48.148;11.526;2022-09-25T01:52:19;8.67;;;7.87;;
22955;SDS011;40888;48.148;11.526;2022-09-25T01:54:48;8.17;;;7.47;;
22955;SDS011;40888;48.148;11.526;2022-09-25T01:57:22;8.90;;;7.73;;
22955;SDS011;40888;48.148;11.526;2022-09-25T01:59:55;9.67;;;8.77;;
22955;SDS011;40888;48.148;11.526;2022-09-25T02:02:27;8.30;;;7.63;;
22955;SDS011;40888;48.148;11.526;2022-09-25T02:05:00;9.57;;;8.57;;
22955;SDS011;40888;48.148;11.526;2022-09-25T02:07:29;7.93;;;7.20;;
22955;SDS011;40888;48.148;11.526;2022-09-25T02:10:00;13.33;;;10.70;;
22955;SDS011;40888;48.148;11.526;2022-09-25T02:12:32;10.17;;;9.17;;
22955;SDS011;40888;48.148;11.526;2022-09-25T02:15:01;11.63;;;9.03;;
22955;SDS011;40888;48.148;11.526;2022-09-25T02:17:29;11.07;;;9.83;;
22955;SDS011;40888;48.148;11.526;2022-09-25T02:20:16;13.07;;;9.93;;
22955;SDS011;40888;48.148;11.526;2022-09-25T02:23:01;11.47;;;9.97;;
22955;SDS011;40888;48.148;11.526;2022-09-25T02:25:34;11.90;;;10.03;;
22955;SDS011;40888;48.148;11.526;2022-09-25T02:28:01;11.60;;;9.70;;
22955;SDS011;40888;48.148;11.526;2022-09-25T02:30:27;10.53;;;9.30;;
22955;SDS011;40888;48.148;11.526;2022-09-25T02:32:54;9.83;;;8.57;;
22955;SDS011;40888;48.148;11.526;2022-09-25T02:35:23;10.67;;;9.60;;
22955;SDS011;40888;48.148;11.526;2022-09-25T02:37:49;10.73;;;9.13;;
22955;SDS011;40888;48.148;11.526;2022-09-25T02:40:15;10.80;;;9.63;;
22955;SDS011;40888;48.148;11.526;2022-09-25T02:42:49;9.47;;;8.63;;
22955;SDS011;40888;48.148;11.526;2022-09-25T02:48:00;8.17;;;7.40;;
22955;SDS011;40888;48.148;11.526;2022-09-25T02:56:04;8.50;;;7.80;;
22955;SDS011;40888;48.148;11.526;2022-09-25T03:01:05;7.70;;;7.00;;
22955;SDS011;40888;48.148;11.526;2022-09-25T03:03:31;8.40;;;7.70;;
22955;SDS011;40888;48.148;11.526;2022-09-25T03:05:58;8.30;;;7.60;;
22955;SDS011;40888;48.148;11.526;2022-09-25T03:08:26;9.10;;;8.33;;
22955;SDS011;40888;48.148;11.526;2022-09-25T03:11:02;9.07;;;7.80;;
22955;SDS011;40888;48.148;11.526;2022-09-25T03:13:29;7.93;;;7.33;;
22955;SDS011;40888;48.148;11.526;2022-09-25T03:16:02;8.13;;;7.50;;
22955;SDS011;40888;48.148;11.526;2022-09-25T03:18:29;8.33;;;7.63;;
22955;SDS011;40888;48.148;11.526;2022-09-25T03:20:55;8.50;;;7.77;;
22955;SDS011;40888;48.148;11.526;2022-09-25T03:23:22;8.03;;;7.23;;
22955;SDS011;40888;48.148;11.526;2022-09-25T03:25:48;6.97;;;6.37;;
22955;SDS011;40888;48.148;11.526;2022-09-25T03:28:14;7.10;;;6.40;;
22955;SDS011;40888;48.148;11.526;2022-09-25T03:30:40;7.30;;;6.70;;
22955;SDS011;40888;48.148;11.526;2022-09-25T03:33:07;7.53;;;6.83;;
22955;SDS011;40888;48.148;11.526;2022-09-25T03:35:35;7.00;;;6.40;;
22955;SDS011;40888;48.148;11.526;2022-09-25T03:38:01;7.63;;;6.93;;
22955;SDS011;40888;48.148;11.526;2022-09-25T03:40:27;7.90;;;7.30;;
22955;SDS011;40888;48.148;11.526;2022-09-25T03:42:53;7.57;;;6.90;;
22955;SDS011;40888;48.148;11.526;2022-09-25T03:45:19;8.30;;;7.60;;
22955;SDS011;40888;48.148;11.526;2022-09-25T03:47:45;7.53;;;6.93;;
22955;SDS011;40888;48.148;11.526;2022-09-25T03:50:12;7.27;;;6.57;;
22955;SDS011;40888;48.148;11.526;2022-09-25T03:52:38;8.47;;;7.03;;
22955;SDS011;40888;48.148;11.526;2022-09-25T03:55:05;7.67;;;7.07;;
22955;SDS011;40888;48.148;11.526;2022-09-25T03:57:31;7.07;;;6.47;;
22955;SDS011;40888;48.148;11.526;2022-09-25T03:59:58;7.70;;;7.07;;
22955;SDS011;40888;48.148;11.526;2022-09-25T04:02:27;6.80;;;6.30;;
22955;SDS011;40888;48.148;11.526;2022-09-25T04:04:53;7.83;;;7.23;;
22955;SDS011;40888;48.148;11.526;2022-09-25T04:07:20;7.47;;;6.87;;
22955;SDS011;40888;48.148;11.526;2022-09-25T04:09:46;7.93;;;7.23;;
22955;SDS011;40888;48.148;11.526;2022-09-25T04:12:12;7.83;;;7.13;;
22955;SDS011;40888;48.148;11.526;2022-09-25T04:14:39;7.17;;;6.57;;
22955;SDS011;40888;48.148;11.526;2022-09-25T04:17:06;7.63;;;6.93;;
22955;SDS011;40888;48.148;11.526;2022-09-25T04:19:32;7.13;;;6.53;;
22955;SDS011;40888;48.148;11.526;2022-09-25T04:21:58;7.60;;;7.00;;
22955;SDS011;40888;48.148;11.526;2022-09-25T04:24:24;8.80;;;8.00;;
22955;SDS011;40888;48.148;11.526;2022-09-25T04:27:09;8.23;;;7.53;;
22955;SDS011;40888;48.148;11.526;2022-09-25T04:29:35;7.37;;;6.70;;
22955;SDS011;40888;48.148;11.526;2022-09-25T04:32:01;7.47;;;6.77;;
22955;SDS011;40888;48.148;11.526;2022-09-25T04:34:46;7.57;;;6.97;;
22955;SDS011;40888;48.148;11.526;2022-09-25T04:37:12;7.97;;;7.37;;
22955;SDS011;40888;48.148;11.526;2022-09-25T04:39:39;7.77;;;7.07;;
22955;SDS011;40888;48.148;11.526;2022-09-25T04:42:06;7.87;;;7.27;;
22955;SDS011;40888;48.148;11.526;2022-09-25T04:44:32;7.90;;;7.20;;
22955;SDS011;40888;48.148;11.526;2022-09-25T04:46:58;8.27;;;7.57;;
22955;SDS011;40888;48.148;11.526;2022-09-25T04:49:24;7.67;;;7.07;;
22955;SDS011;40888;48.148;11.526;2022-09-25T04:51:50;8.03;;;7.43;;
22955;SDS011;40888;48.148;11.526;2022-09-25T04:54:16;7.97;;;7.37;;
22955;SDS011;40888;48.148;11.526;2022-09-25T04:56:43;7.60;;;6.90;;
22955;SDS011;40888;48.148;11.526;2022-09-25T04:59:09;8.47;;;7.67;;
22955;SDS011;40888;48.148;11.526;2022-09-25T05:01:36;8.10;;;7.40;;
22955;SDS011;40888;48.148;11.526;2022-09-25T05:04:03;7.57;;;6.97;;
22955;SDS011;40888;48.148;11.526;2022-09-25T05:06:29;8.00;;;7.30;;
22955;SDS011;40888;48.148;11.526;2022-09-25T05:08:56;7.30;;;6.70;;
22955;SDS011;40888;48.148;11.526;2022-09-25T05:11:22;7.53;;;6.80;;
22955;SDS011;40888;48.148;11.526;2022-09-25T05:13:49;8.20;;;7.50;;
22955;SDS011;40888;48.148;11.526;2022-09-25T05:16:15;7.80;;;7.10;;
22955;SDS011;40888;48.148;11.526;2022-09-25T05:18:41;8.00;;;7.00;;
22955;SDS011;40888;48.148;11.526;2022-09-25T05:21:07;8.33;;;7.63;;
22955;SDS011;40888;48.148;11.526;2022-09-25T05:23:33;7.67;;;7.00;;
22955;SDS011;40888;48.148;11.526;2022-09-25T05:26:00;8.40;;;7.70;;
22955;SDS011;40888;48.148;11.526;2022-09-25T05:28:26;7.97;;;7.27;;
22955;SDS011;40888;48.148;11.526;2022-09-25T05:30:53;8.47;;;7.60;;
22955;SDS011;40888;48.148;11.526;2022-09-25T05:33:19;8.30;;;7.60;;
22955;SDS011;40888;48.148;11.526;2022-09-25T05:35:46;7.97;;;7.27;;
22955;SDS011;40888;48.148;11.526;2022-09-25T05:38:12;8.23;;;7.53;;
22955;SDS011;40888;48.148;11.526;2022-09-25T05:40:39;8.07;;;7.37;;
22955;SDS011;40888;48.148;11.526;2022-09-25T05:43:05;8.13;;;7.53;;
22955;SDS011;40888;48.148;11.526;2022-09-25T05:45:31;6.13;;;5.53;;
22955;SDS011;40888;48.148;11.526;2022-09-25T05:47:59;6.83;;;6.33;;
22955;SDS011;40888;48.148;11.526;2022-09-25T05:50:26;6.17;;;5.67;;
22955;SDS011;40888;48.148;11.526;2022-09-25T05:52:56;5.93;;;5.43;;
22955;SDS011;40888;48.148;11.526;2022-09-25T05:55:22;6.43;;;5.93;;
22955;SDS011;40888;48.148;11.526;2022-09-25T05:57:48;5.63;;;5.13;;
22955;SDS011;40888;48.148;11.526;2022-09-25T06:00:14;6.10;;;5.60;;
22955;SDS011;40888;48.148;11.526;2022-09-25T06:02:41;6.43;;;5.83;;
22955;SDS011;40888;48.148;11.526;2022-09-25T06:05:08;6.47;;;5.97;;
22955;SDS011;40888;48.148;11.526;2022-09-25T06:07:34;6.13;;;5.63;;
22955;SDS011;40888;48.148;11.526;2022-09-25T06:10:00;6.57;;;5.97;;
22955;SDS011;40888;48.148;11.526;2022-09-25T06:12:30;6.53;;;5.93;;
22955;SDS011;40888;48.148;11.526;2022-09-25T06:14:56;5.97;;;5.47;;
22955;SDS011;40888;48.148;11.526;2022-09-25T06:17:22;5.90;;;5.33;;
22955;SDS011;40888;48.148;11.526;2022-09-25T06:19:49;5.90;;;5.37;;
22955;SDS011;40888;48.148;11.526;2022-09-25T06:22:15;6.87;;;5.70;;
22955;SDS011;40888;48.148;11.526;2022-09-25T06:24:41;5.53;;;5.03;;
22955;SDS011;40888;48.148;11.526;2022-09-25T06:27:07;5.17;;;4.77;;
22955;SDS011;40888;48.148;11.526;2022-09-25T06:29:34;5.43;;;4.93;;
22955;SDS011;40888;48.148;11.526;2022-09-25T06:32:01;5.50;;;5.10;;
22955;SDS011;40888;48.148;11.526;2022-09-25T06:34:27;5.63;;;5.17;;
22955;SDS011;40888;48.148;11.526;2022-09-25T06:36:53;6.20;;;5.70;;
22955;SDS011;40888;48.148;11.526;2022-09-25T06:39:19;5.57;;;5.17;;
22955;SDS011;40888;48.148;11.526;2022-09-25T06:41:45;5.53;;;5.07;;
22955;SDS011;40888;48.148;11.526;2022-09-25T06:44:12;5.93;;;5.40;;
22955;SDS011;40888;48.148;11.526;2022-09-25T06:46:38;6.13;;;5.53;;
22955;SDS011;40888;48.148;11.526;2022-09-25T06:49:10;6.20;;;5.70;;
22955;SDS011;40888;48.148;11.526;2022-09-25T06:51:37;5.73;;;5.23;;
22955;SDS011;40888;48.148;11.526;2022-09-25T06:54:04;5.90;;;5.40;;
22955;SDS011;40888;48.148;11.526;2022-09-25T06:56:30;6.20;;;5.70;;
22955;SDS011;40888;48.148;11.526;2022-09-25T06:58:57;6.13;;;5.63;;
22955;SDS011;40888;48.148;11.526;2022-09-25T07:01:23;6.60;;;6.10;;
22955;SDS011;40888;48.148;11.526;2022-09-25T07:03:49;5.73;;;5.33;;
22955;SDS011;40888;48.148;11.526;2022-09-25T07:06:22;6.73;;;6.10;;
22955;SDS011;40888;48.148;11.526;2022-09-25T07:08:50;5.33;;;4.93;;
22955;SDS011;40888;48.148;11.526;2022-09-25T07:11:20;5.77;;;5.37;;
22955;SDS011;40888;48.148;11.526;2022-09-25T07:13:47;5.83;;;5.43;;
22955;SDS011;40888;48.148;11.526;2022-09-25T07:16:16;5.90;;;5.40;;
22955;SDS011;40888;48.148;11.526;2022-09-25T07:18:43;6.20;;;5.70;;
22955;SDS011;40888;48.148;11.526;2022-09-25T07:21:10;5.47;;;5.00;;
22955;SDS011;40888;48.148;11.526;2022-09-25T07:23:36;6.90;;;6.17;;
22955;SDS011;40888;48.148;11.526;2022-09-25T07:26:10;6.60;;;6.00;;
22955;SDS011;40888;48.148;11.526;2022-09-25T07:28:38;6.43;;;5.93;;
22955;SDS011;40888;48.148;11.526;2022-09-25T07:33:36;6.70;;;6.20;;
22955;SDS011;40888;48.148;11.526;2022-09-25T07:36:03;7.60;;;7.00;;
22955;SDS011;40888;48.148;11.526;2022-09-25T07:38:29;7.70;;;7.10;;
22955;SDS011;40888;48.148;11.526;2022-09-25T07:40:55;7.57;;;6.77;;
22955;SDS011;40888;48.148;11.526;2022-09-25T07:43:22;8.17;;;7.20;;
22955;SDS011;40888;48.148;11.526;2022-09-25T07:45:48;7.30;;;6.70;;
22955;SDS011;40888;48.148;11.526;2022-09-25T07:48:18;7.30;;;6.70;;
22955;SDS011;40888;48.148;11.526;2022-09-25T07:50:45;7.37;;;6.83;;
22955;SDS011;40888;48.148;11.526;2022-09-25T07:53:14;7.10;;;6.53;;
22955;SDS011;40888;48.148;11.526;2022-09-25T07:55:43;7.77;;;7.17;;
22955;SDS011;40888;48.148;11.526;2022-09-25T07:58:09;8.10;;;7.40;;
22955;SDS011;40888;48.148;11.526;2022-09-25T08:00:36;8.40;;;7.70;;
22955;SDS011;40888;48.148;11.526;2022-09-25T08:03:02;8.87;;;8.07;;
22955;SDS011;40888;48.148;11.526;2022-09-25T08:05:28;8.33;;;7.67;;
22955;SDS011;40888;48.148;11.526;2022-09-25T08:07:57;8.93;;;8.23;;
22955;SDS011;40888;48.148;11.526;2022-09-25T08:10:26;9.07;;;8.27;;
22955;SDS011;40888;48.148;11.526;2022-09-25T08:12:56;8.53;;;7.83;;
22955;SDS011;40888;48.148;11.526;2022-09-25T08:15:23;9.03;;;8.23;;
22955;SDS011;40888;48.148;11.526;2022-09-25T08:17:50;9.07;;;8.37;;
22955;SDS011;40888;48.148;11.526;2022-09-25T08:20:17;9.77;;;8.83;;
22955;SDS011;40888;48.148;11.526;2022-09-25T08:22:43;8.70;;;8.00;;
22955;SDS011;40888;48.148;11.526;2022-09-25T08:25:09;8.00;;;7.40;;
22955;SDS011;40888;48.148;11.526;2022-09-25T08:27:37;9.07;;;8.27;;
22955;SDS011;40888;48.148;11.526;2022-09-25T08:30:08;9.27;;;8.40;;
22955;SDS011;40888;48.148;11.526;2022-09-25T08:32:34;9.40;;;8.70;;
22955;SDS011;40888;48.148;11.526;2022-09-25T08:35:01;9.43;;;8.70;;
22955;SDS011;40888;48.148;11.526;2022-09-25T08:37:27;10.70;;;9.80;;
22955;SDS011;40888;48.148;11.526;2022-09-25T08:39:56;11.03;;;10.20;;
22955;SDS011;40888;48.148;11.526;2022-09-25T08:42:26;11.13;;;10.13;;
22955;SDS011;40888;48.148;11.526;2022-09-25T08:44:54;14.07;;;12.87;;
22955;SDS011;40888;48.148;11.526;2022-09-25T08:47:40;13.97;;;12.67;;
22955;SDS011;40888;48.148;11.526;2022-09-25T08:50:26;14.63;;;13.27;;
22955;SDS011;40888;48.148;11.526;2022-09-25T08:52:57;13.50;;;12.40;;
22955;SDS011;40888;48.148;11.526;2022-09-25T08:55:27;14.17;;;12.77;;
22955;SDS011;40888;48.148;11.526;2022-09-25T08:58:16;14.23;;;12.93;;
22955;SDS011;40888;48.148;11.526;2022-09-25T09:00:43;13.90;;;12.70;;
22955;SDS011;40888;48.148;11.526;2022-09-25T09:03:10;14.87;;;13.47;;
22955;SDS011;40888;48.148;11.526;2022-09-25T09:05:39;14.67;;;13.27;;
22955;SDS011;40888;48.148;11.526;2022-09-25T09:08:07;14.40;;;13.10;;
22955;SDS011;40888;48.148;11.526;2022-09-25T09:10:36;14.33;;;13.13;;
22955;SDS011;40888;48.148;11.526;2022-09-25T09:15:50;16.20;;;14.80;;
22955;SDS011;40888;48.148;11.526;2022-09-25T09:18:21;18.27;;;16.47;;
22955;SDS011;40888;48.148;11.526;2022-09-25T09:20:55;17.77;;;16.17;;
22955;SDS011;40888;48.148;11.526;2022-09-25T09:23:22;15.83;;;14.43;;
22955;SDS011;40888;48.148;11.526;2022-09-25T09:26:02;17.20;;;15.60;;
22955;SDS011;40888;48.148;11.526;2022-09-25T09:28:50;17.43;;;15.80;;
22955;SDS011;40888;48.148;11.526;2022-09-25T09:33:56;16.43;;;14.93;;
22955;SDS011;40888;48.148;11.526;2022-09-25T09:36:28;17.30;;;15.80;;
22955;SDS011;40888;48.148;11.526;2022-09-25T09:49:28;16.43;;;15.03;;
22955;SDS011;40888;48.148;11.526;2022-09-25T09:52:02;18.10;;;16.23;;
22955;SDS011;40888;48.148;11.526;2022-09-25T09:54:39;16.33;;;14.83;;
22955;SDS011;40888;48.148;11.526;2022-09-25T09:57:12;16.00;;;14.60;;
22955;SDS011;40888;48.148;11.526;2022-09-25T09:59:59;14.60;;;13.30;;
22955;SDS011;40888;48.148;11.526;2022-09-25T10:02:29;15.37;;;13.97;;
22955;SDS011;40888;48.148;11.526;2022-09-25T10:04:55;14.80;;;13.47;;
22955;SDS011;40888;48.148;11.526;2022-09-25T10:07:22;12.60;;;11.57;;
22955;SDS011;40888;48.148;11.526;2022-09-25T10:09:48;13.67;;;12.47;;
22955;SDS011;40888;48.148;11.526;2022-09-25T10:14:46;10.45;;;9.45;;
22955;SDS011;40888;48.148;11.526;2022-09-25T10:17:12;10.20;;;9.18;;
22955;SDS011;40888;48.148;11.526;2022-09-25T10:19:56;9.18;;;8.23;;
22955;SDS011;40888;48.148;11.526;2022-09-25T10:22:28;10.60;;;8.40;;
22955;SDS011;40888;48.148;11.526;2022-09-25T10:24:58;8.63;;;7.82;;
22955;SDS011;40888;48.148;11.526;2022-09-25T10:30:00;9.68;;;8.63;;
22955;SDS011;40888;48.148;11.526;2022-09-25T10:32:26;9.70;;;8.73;;
22955;SDS011;40888;48.148;11.526;2022-09-25T10:34:53;9.32;;;8.38;;
22955;SDS011;40888;48.148;11.526;2022-09-25T10:37:19;9.10;;;8.20;;
22955;SDS011;40888;48.148;11.526;2022-09-25T10:40:06;9.30;;;8.40;;
22955;SDS011;40888;48.148;11.526;2022-09-25T10:42:39;10.00;;;9.00;;
22955;SDS011;40888;48.148;11.526;2022-09-25T10:47:47;9.18;;;8.27;;
22955;SDS011;40888;48.148;11.526;2022-09-25T10:50:33;10.07;;;8.68;;
22955;SDS011;40888;48.148;11.526;2022-09-25T10:53:01;9.85;;;8.85;;
22955;SDS011;40888;48.148;11.526;2022-09-25T10:55:35;7.97;;;7.13;;
22955;SDS011;40888;48.148;11.526;2022-09-25T11:00:57;7.03;;;6.32;;
22955;SDS011;40888;48.148;11.526;2022-09-25T11:03:24;8.05;;;6.82;;
22955;SDS011;40888;48.148;11.526;2022-09-25T11:05:53;7.70;;;6.93;;
22955;SDS011;40888;48.148;11.526;2022-09-25T11:08:20;8.65;;;7.20;;
22955;SDS011;40888;48.148;11.526;2022-09-25T11:10:52;8.32;;;7.53;;
22955;SDS011;40888;48.148;11.526;2022-09-25T11:13:22;7.10;;;6.40;;
22955;SDS011;40888;48.148;11.526;2022-09-25T11:15:52;8.23;;;5.85;;
22955;SDS011;40888;48.148;11.526;2022-09-25T11:20:59;6.60;;;5.93;;
22955;SDS011;40888;48.148;11.526;2022-09-25T11:23:32;7.25;;;6.03;;
22955;SDS011;40888;48.148;11.526;2022-09-25T11:26:07;5.80;;;5.20;;
22955;SDS011;40888;48.148;11.526;2022-09-25T11:36:45;5.60;;;5.07;;
22955;SDS011;40888;48.148;11.526;2022-09-25T11:39:21;6.82;;;6.13;;
22955;SDS011;40888;48.148;11.526;2022-09-25T11:42:11;5.93;;;5.28;;
22955;SDS011;40888;48.148;11.526;2022-09-25T11:49:35;6.15;;;5.55;;
22955;SDS011;40888;48.148;11.526;2022-09-25T11:54:35;7.90;;;5.95;;
22955;SDS011;40888;48.148;11.526;2022-09-25T12:10:31;9.55;;;7.43;;
22955;SDS011;40888;48.148;11.526;2022-09-25T12:13:03;8.82;;;7.47;;
22955;SDS011;40888;48.148;11.526;2022-09-25T12:15:47;8.40;;;7.57;;
22955;SDS011;40888;48.148;11.526;2022-09-25T12:20:50;8.82;;;7.18;;
22955;SDS011;40888;48.148;11.526;2022-09-25T12:23:53;8.57;;;7.65;;
22955;SDS011;40888;48.148;11.526;2022-09-25T12:28:49;7.93;;;7.07;;
22955;SDS011;40888;48.148;11.526;2022-09-25T12:36:38;8.23;;;7.10;;
22955;SDS011;40888;48.148;11.526;2022-09-25T12:39:16;8.68;;;6.70;;
22955;SDS011;40888;48.148;11.526;2022-09-25T12:41:49;7.55;;;6.63;;
22955;SDS011;40888;48.148;11.526;2022-09-25T12:44:17;7.10;;;6.30;;
22955;SDS011;40888;48.148;11.526;2022-09-25T12:52:16;7.70;;;6.63;;
22955;SDS011;40888;48.148;11.526;2022-09-25T12:57:15;7.53;;;6.82;;
22955;SDS011;40888;48.148;11.526;2022-09-25T12:59:45;7.13;;;6.47;;
22955;SDS011;40888;48.148;11.526;2022-09-25T13:07:33;8.27;;;6.83;;
22955;SDS011;40888;48.148;11.526;2022-09-25T13:10:02;8.23;;;7.27;;
22955;SDS011;40888;48.148;11.526;2022-09-25T13:12:36;10.17;;;7.03;;
22955;SDS011;40888;48.148;11.526;2022-09-25T13:15:10;9.20;;;6.80;;
22955;SDS011;40888;48.148;11.526;2022-09-25T13:17:38;9.83;;;7.40;;
22955;SDS011;40888;48.148;11.526;2022-09-25T13:22:49;8.50;;;7.47;;
22955;SDS011;40888;48.148;11.526;2022-09-25T13:25:15;8.83;;;7.00;;
22955;SDS011;40888;48.148;11.526;2022-09-25T13:27:43;6.87;;;6.03;;
22955;SDS011;40888;48.148;11.526;2022-09-25T13:30:23;10.37;;;7.80;;
22955;SDS011;40888;48.148;11.526;2022-09-25T13:32:51;10.63;;;7.30;;
22955;SDS011;40888;48.148;11.526;2022-09-25T13:35:18;8.97;;;6.60;;
22955;SDS011;40888;48.148;11.526;2022-09-25T13:37:44;8.73;;;7.43;;
22955;SDS011;40888;48.148;11.526;2022-09-25T13:40:15;8.03;;;6.80;;
22955;SDS011;40888;48.148;11.526;2022-09-25T13:45:46;9.07;;;7.90;;
22955;SDS011;40888;48.148;11.526;2022-09-25T13:48:36;9.30;;;8.20;;
22955;SDS011;40888;48.148;11.526;2022-09-25T13:53:58;10.93;;;9.13;;
22955;SDS011;40888;48.148;11.526;2022-09-25T13:56:48;10.20;;;8.80;;
22955;SDS011;40888;48.148;11.526;2022-09-25T14:01:51;12.27;;;9.07;;
22955;SDS011;40888;48.148;11.526;2022-09-25T14:04:28;10.30;;;8.57;;
22955;SDS011;40888;48.148;11.526;2022-09-25T14:07:02;9.70;;;8.17;;
22955;SDS011;40888;48.148;11.526;2022-09-25T14:09:28;10.53;;;8.60;;
22955;SDS011;40888;48.148;11.526;2022-09-25T14:14:48;11.30;;;9.43;;
22955;SDS011;40888;48.148;11.526;2022-09-25T14:17:20;11.83;;;9.17;;
22955;SDS011;40888;48.148;11.526;2022-09-25T14:19:47;9.77;;;8.63;;
22955;SDS011;40888;48.148;11.526;2022-09-25T14:22:17;11.07;;;8.40;;
22955;SDS011;40888;48.148;11.526;2022-09-25T14:24:45;9.60;;;8.23;;
22955;SDS011;40888;48.148;11.526;2022-09-25T14:27:17;8.70;;;7.80;;
22955;SDS011;40888;48.148;11.526;2022-09-25T14:29:45;10.07;;;8.97;;
22955;SDS011;40888;48.148;11.526;2022-09-25T14:45:16;10.03;;;8.97;;
22955;SDS011;40888;48.148;11.526;2022-09-25T14:47:46;10.70;;;9.20;;
22955;SDS011;40888;48.148;11.526;2022-09-25T14:50:20;8.90;;;7.60;;
22955;SDS011;40888;48.148;11.526;2022-09-25T14:52:48;9.43;;;8.20;;
22955;SDS011;40888;48.148;11.526;2022-09-25T14:55:16;10.47;;;8.13;;
22955;SDS011;40888;48.148;11.526;2022-09-25T14:57:45;9.27;;;8.10;;
22955;SDS011;40888;48.148;11.526;2022-09-25T15:00:16;9.83;;;8.80;;
22955;SDS011;40888;48.148;11.526;2022-09-25T15:02:44;8.20;;;7.30;;
22955;SDS011;40888;48.148;11.526;2022-09-25T15:05:26;7.73;;;6.93;;
22955;SDS011;40888;48.148;11.526;2022-09-25T15:07:55;10.47;;;7.83;;
22955;SDS011;40888;48.148;11.526;2022-09-25T15:12:49;8.83;;;7.17;;
22955;SDS011;40888;48.148;11.526;2022-09-25T15:15:16;8.90;;;7.53;;
22955;SDS011;40888;48.148;11.526;2022-09-25T15:17:49;10.80;;;8.73;;
22955;SDS011;40888;48.148;11.526;2022-09-25T15:20:19;9.23;;;7.13;;
22955;SDS011;40888;48.148;11.526;2022-09-25T15:22:47;8.13;;;7.33;;
22955;SDS011;40888;48.148;11.526;2022-09-25T15:25:16;8.87;;;7.53;;
22955;SDS011;40888;48.148;11.526;2022-09-25T15:27:45;8.80;;;7.90;;
22955;SDS011;40888;48.148;11.526;2022-09-25T15:30:15;8.70;;;6.80;;
22955;SDS011;40888;48.148;11.526;2022-09-25T15:32:41;7.40;;;6.60;;
22955;SDS011;40888;48.148;11.526;2022-09-25T15:37:41;7.63;;;6.83;;
22955;SDS011;40888;48.148;11.526;2022-09-25T15:42:44;7.20;;;6.50;;
22955;SDS011;40888;48.148;11.526;2022-09-25T15:45:34;9.27;;;7.43;;
22955;SDS011;40888;48.148;11.526;2022-09-25T15:48:25;6.97;;;6.10;;
22955;SDS011;40888;48.148;11.526;2022-09-25T15:50:50;7.50;;;6.80;;
22955;SDS011;40888;48.148;11.526;2022-09-25T15:53:19;8.50;;;7.70;;
22955;SDS011;40888;48.148;11.526;2022-09-25T15:55:46;8.83;;;7.93;;
22955;SDS011;40888;48.148;11.526;2022-09-25T15:58:13;9.30;;;8.07;;
22955;SDS011;40888;48.148;11.526;2022-09-25T16:00:51;8.67;;;7.53;;
22955;SDS011;40888;48.148;11.526;2022-09-25T16:03:37;8.93;;;7.03;;
22955;SDS011;40888;48.148;11.526;2022-09-25T16:06:26;8.23;;;7.43;;
22955;SDS011;40888;48.148;11.526;2022-09-25T16:09:07;8.97;;;7.07;;
22955;SDS011;40888;48.148;11.526;2022-09-25T16:11:34;7.87;;;6.57;;
22955;SDS011;40888;48.148;11.526;2022-09-25T16:16:48;8.93;;;6.60;;
22955;SDS011;40888;48.148;11.526;2022-09-25T16:19:33;9.07;;;6.57;;
22955;SDS011;40888;48.148;11.526;2022-09-25T16:22:10;6.93;;;5.87;;
22955;SDS011;40888;48.148;11.526;2022-09-25T16:24:37;7.00;;;5.90;;
22955;SDS011;40888;48.148;11.526;2022-09-25T16:27:04;9.10;;;6.17;;
22955;SDS011;40888;48.148;11.526;2022-09-25T16:29:35;9.43;;;5.73;;
22955;SDS011;40888;48.148;11.526;2022-09-25T16:32:07;7.33;;;5.83;;
22955;SDS011;40888;48.148;11.526;2022-09-25T16:34:39;7.40;;;5.80;;
22955;SDS011;40888;48.148;11.526;2022-09-25T16:37:07;7.30;;;5.90;;
22955;SDS011;40888;48.148;11.526;2022-09-25T16:39:43;6.33;;;5.63;;
22955;SDS011;40888;48.148;11.526;2022-09-25T16:42:29;8.23;;;5.90;;
22955;SDS011;40888;48.148;11.526;2022-09-25T16:47:42;5.47;;;4.90;;
22955;SDS011;40888;48.148;11.526;2022-09-25T16:50:10;6.63;;;5.83;;
22955;SDS011;40888;48.148;11.526;2022-09-25T16:52:37;7.57;;;6.13;;
22955;SDS011;40888;48.148;11.526;2022-09-25T16:55:13;6.73;;;5.87;;
22955;SDS011;40888;48.148;11.526;2022-09-25T16:57:40;7.50;;;6.07;;
22955;SDS011;40888;48.148;11.526;2022-09-25T17:00:08;6.63;;;6.03;;
22955;SDS011;40888;48.148;11.526;2022-09-25T17:02:38;7.80;;;6.47;;
22955;SDS011;40888;48.148;11.526;2022-09-25T17:05:27;7.60;;;6.70;;
22955;SDS011;40888;48.148;11.526;2022-09-25T17:07:53;9.17;;;7.77;;
22955;SDS011;40888;48.148;11.526;2022-09-25T17:10:23;12.07;;;10.37;;
22955;SDS011;40888;48.148;11.526;2022-09-25T17:12:50;12.27;;;10.97;;
22955;SDS011;40888;48.148;11.526;2022-09-25T17:15:33;13.27;;;10.80;;
22955;SDS011;40888;48.148;11.526;2022-09-25T17:18:00;12.97;;;11.50;;